createdAt,value
2022-09-30T04:33:12.973Z,4.18
2022-09-30T04:35:41.607Z,4.12
2022-09-30T04:38:10.167Z,4.12
2022-09-30T04:40:39.349Z,4.09
2022-09-30T04:43:07.918Z,4.06
2022-09-30T04:45:36.785Z,4.08
2022-09-30T04:48:05.894Z,4.09
2022-09-30T04:50:38.290Z,4.10
2022-09-30T04:53:27.105Z,4.08
2022-09-30T04:56:00.963Z,4.08
2022-09-30T04:58:34.689Z,4.10
2022-09-30T05:01:06.943Z,4.09
2022-09-30T05:03:36.413Z,4.07
2022-09-30T05:06:22.206Z,4.08
2022-09-30T05:08:55.083Z,4.09
2022-09-30T05:11:24.113Z,4.11
2022-09-30T05:13:52.731Z,4.15
2022-09-30T05:16:21.866Z,4.18
2022-09-30T05:18:50.486Z,4.19
2022-09-30T05:21:21.243Z,3.99
2022-09-30T05:23:51.446Z,4.22
2022-09-30T05:26:20.096Z,4.23
2022-09-30T05:31:52.190Z,4.32
2022-09-30T05:34:21.500Z,4.35
2022-09-30T05:36:50.092Z,4.34
2022-09-30T05:39:20.129Z,4.38
2022-09-30T05:41:48.800Z,4.38
2022-09-30T05:44:17.401Z,4.39
2022-09-30T05:46:46.034Z,4.43
2022-09-30T05:49:14.664Z,4.46
2022-09-30T05:51:43.482Z,4.50
2022-09-30T05:54:12.825Z,4.51
2022-09-30T05:56:43.038Z,4.53
2022-09-30T05:59:11.639Z,4.55
2022-09-30T06:01:40.589Z,4.61
2022-09-30T06:04:09.694Z,4.67
2022-09-30T06:06:38.996Z,4.73
2022-09-30T06:09:07.656Z,4.77
2022-09-30T06:11:36.296Z,4.84
2022-09-30T06:14:06.338Z,4.97
2022-09-30T06:16:35.084Z,5.10
2022-09-30T06:19:03.892Z,5.20
2022-09-30T06:21:35.624Z,5.31
2022-09-30T06:24:04.431Z,5.45
2022-09-30T06:26:33.812Z,5.59
2022-09-30T06:29:08.009Z,5.75
2022-09-30T06:31:38.768Z,5.94
2022-09-30T06:34:08.263Z,6.12
2022-09-30T06:36:36.969Z,6.39
2022-09-30T06:39:08.118Z,6.64
2022-09-30T06:41:40.535Z,6.98
2022-09-30T06:44:09.158Z,7.40
2022-09-30T06:46:52.502Z,7.77
2022-09-30T06:49:22.374Z,8.13
2022-09-30T06:51:55.168Z,8.43
2022-09-30T06:54:24.305Z,8.58
2022-09-30T06:56:53.893Z,8.74
2022-09-30T06:59:22.988Z,8.90
2022-09-30T07:01:53.499Z,9.01
2022-09-30T07:04:22.199Z,9.18
2022-09-30T07:06:50.758Z,9.36
2022-09-30T07:09:20.780Z,9.52
2022-09-30T07:11:49.853Z,9.69
2022-09-30T07:14:18.773Z,9.91
2022-09-30T07:16:47.460Z,10.09
2022-09-30T07:19:17.757Z,10.26
2022-09-30T07:21:46.391Z,10.40
2022-09-30T07:24:15.306Z,10.48
2022-09-30T07:26:45.488Z,10.58
2022-09-30T07:29:15.316Z,10.67
2022-09-30T07:31:43.976Z,10.72
2022-09-30T07:34:13.167Z,10.72
2022-09-30T07:36:43.357Z,10.77
2022-09-30T07:39:12.464Z,10.56
2022-09-30T07:41:41.593Z,10.78
2022-09-30T07:44:14.553Z,10.76
2022-09-30T07:46:46.041Z,10.44
2022-09-30T07:49:24.901Z,10.39
2022-09-30T07:51:57.218Z,10.19
2022-09-30T07:54:29.572Z,10.48
2022-09-30T07:57:15.429Z,10.38
2022-09-30T07:59:44.398Z,10.62
2022-09-30T08:02:17.384Z,10.69
2022-09-30T08:04:46.817Z,10.69
2022-09-30T08:07:19.514Z,10.68
2022-09-30T08:09:48.217Z,10.66
2022-09-30T08:12:16.883Z,10.67
2022-09-30T08:14:45.636Z,10.73
2022-09-30T08:17:15.014Z,10.86
2022-09-30T08:19:44.859Z,10.94
2022-09-30T08:22:14.180Z,11.06
2022-09-30T08:24:44.403Z,11.14
2022-09-30T08:27:13.102Z,11.24
2022-09-30T08:30:00.152Z,11.31
2022-09-30T08:32:32.592Z,11.26
2022-09-30T08:35:01.227Z,11.19
2022-09-30T08:37:29.878Z,11.14
2022-09-30T08:39:59.890Z,11.07
2022-09-30T08:42:52.950Z,11.03
2022-09-30T08:45:41.393Z,10.78
2022-09-30T08:48:30.816Z,10.98
2022-09-30T08:51:20.801Z,10.97
2022-09-30T08:53:50.309Z,11.07
2022-09-30T08:56:26.888Z,11.19
2022-09-30T08:59:03.025Z,11.31
2022-09-30T09:01:35.724Z,11.41
2022-09-30T09:04:06.501Z,11.46
2022-09-30T09:06:42.453Z,11.52
2022-09-30T09:09:29.913Z,11.59
2022-09-30T09:12:19.043Z,11.68
2022-09-30T09:15:01.327Z,11.75
2022-09-30T09:18:04.569Z,11.83
2022-09-30T09:20:42.357Z,11.91
2022-09-30T09:23:15.071Z,12.00
2022-09-30T09:25:46.336Z,12.07
2022-09-30T09:28:29.425Z,12.17
2022-09-30T09:31:01.493Z,12.21
2022-09-30T09:33:33.388Z,12.31
2022-09-30T09:36:16.160Z,12.40
2022-09-30T09:39:03.357Z,12.49
2022-09-30T09:41:42.448Z,12.60
2022-09-30T09:44:28.579Z,12.69
2022-09-30T09:47:05.604Z,12.73
2022-09-30T09:49:36.122Z,12.82
2022-09-30T09:52:42.496Z,12.92
2022-09-30T09:55:12.134Z,13.02
2022-09-30T09:57:41.683Z,13.12
2022-09-30T10:00:40.869Z,13.14
2022-09-30T10:03:19.333Z,12.09
2022-09-30T10:06:01.688Z,13.17
2022-09-30T10:08:32.011Z,13.24
2022-09-30T10:11:03.562Z,13.26
2022-09-30T10:13:42.054Z,13.38
2022-09-30T10:16:29.930Z,13.50
2022-09-30T10:18:59.300Z,13.54
2022-09-30T10:21:29.823Z,13.23
2022-09-30T10:23:59.918Z,13.28
2022-09-30T10:26:30.226Z,13.62
2022-09-30T10:29:02.110Z,13.72
2022-09-30T10:31:37.766Z,13.81
2022-09-30T10:34:20.136Z,13.84
2022-09-30T10:36:49.283Z,13.86
2022-09-30T10:39:24.733Z,13.65
2022-09-30T10:42:03.953Z,13.87
2022-09-30T10:44:32.920Z,13.98
2022-09-30T10:47:05.801Z,14.01
2022-09-30T10:49:45.809Z,14.05
2022-09-30T10:52:23.354Z,13.55
2022-09-30T10:54:55.666Z,14.12
2022-09-30T10:57:27.200Z,14.18
2022-09-30T11:00:01.973Z,14.27
2022-09-30T11:02:42.187Z,14.33
2022-09-30T11:05:20.854Z,14.38
2022-09-30T11:07:57.361Z,14.18
2022-09-30T11:10:40.845Z,14.52
2022-09-30T11:13:25.751Z,14.58
2022-09-30T11:16:03.439Z,14.57
2022-09-30T11:18:39.213Z,14.59
2022-09-30T11:21:16.284Z,14.65
2022-09-30T11:23:49.936Z,14.69
2022-09-30T11:26:34.851Z,14.77
2022-09-30T11:29:33.219Z,14.95
2022-09-30T11:32:18.238Z,15.11
2022-09-30T11:34:58.210Z,15.19
2022-09-30T11:37:38.177Z,15.28
2022-09-30T11:40:36.335Z,15.33
2022-09-30T11:43:30.002Z,15.53
2022-09-30T11:46:26.300Z,15.67
2022-09-30T11:49:17.993Z,15.63
2022-09-30T11:52:00.829Z,15.82
2022-09-30T11:54:53.219Z,15.85
2022-09-30T11:57:32.180Z,15.92
2022-09-30T12:00:07.483Z,15.94
2022-09-30T12:02:43.986Z,16.00
2022-09-30T12:05:18.073Z,16.04
2022-09-30T12:07:52.658Z,16.08
2022-09-30T12:10:24.633Z,16.04
2022-09-30T12:12:58.954Z,16.12
2022-09-30T12:15:29.859Z,16.30
2022-09-30T12:18:03.219Z,16.55
2022-09-30T12:20:39.533Z,16.74
2022-09-30T12:23:21.212Z,16.35
2022-09-30T12:25:56.705Z,16.82
2022-09-30T12:28:51.472Z,17.13
2022-09-30T12:31:51.870Z,16.95
2022-09-30T12:34:46.103Z,17.31
2022-09-30T12:37:36.997Z,17.48
2022-09-30T12:40:52.382Z,17.23
2022-09-30T12:44:16.730Z,17.59
2022-09-30T12:47:05.685Z,17.45
2022-09-30T12:49:37.960Z,17.26
2022-09-30T12:52:15.842Z,17.21
2022-09-30T12:54:53.239Z,17.19
2022-09-30T12:57:32.376Z,17.12
2022-09-30T13:00:07.342Z,17.25
2022-09-30T13:02:40.294Z,17.70
2022-09-30T13:05:51.916Z,18.16
2022-09-30T13:08:51.959Z,18.14
2022-09-30T13:11:42.500Z,17.80
2022-09-30T13:14:34.967Z,17.41
2022-09-30T13:17:27.353Z,16.95
2022-09-30T13:19:57.453Z,17.00
2022-09-30T13:22:58.902Z,17.53
2022-09-30T13:25:28.041Z,17.86
2022-09-30T13:28:32.198Z,18.17
2022-09-30T13:31:19.752Z,18.06
2022-09-30T13:34:06.539Z,18.09
2022-09-30T13:36:42.872Z,17.90
2022-09-30T13:39:26.587Z,17.91
2022-09-30T13:42:15.235Z,17.82
2022-09-30T13:45:01.904Z,17.50
2022-09-30T13:47:38.689Z,17.41
2022-09-30T13:50:17.173Z,17.18
2022-09-30T13:52:52.189Z,17.13
2022-09-30T13:55:27.199Z,17.11
2022-09-30T13:58:12.074Z,17.29
2022-09-30T14:00:59.663Z,16.71
2022-09-30T14:03:59.820Z,17.44
2022-09-30T14:06:46.918Z,17.57
2022-09-30T14:09:38.816Z,17.19
2022-09-30T14:12:29.974Z,17.54
2022-09-30T14:15:23.892Z,17.83
2022-09-30T14:18:24.868Z,17.83
2022-09-30T14:21:43.011Z,17.72
2022-09-30T14:24:16.190Z,17.67
2022-09-30T14:27:23.483Z,17.63
2022-09-30T14:30:05.745Z,17.53
2022-09-30T14:32:44.556Z,17.35
2022-09-30T14:35:18.898Z,17.56
2022-09-30T14:37:52.993Z,17.60
2022-09-30T14:40:28.528Z,17.63
2022-09-30T14:43:02.887Z,16.63
2022-09-30T14:45:36.266Z,17.60
2022-09-30T14:48:11.736Z,17.68
2022-09-30T14:50:48.455Z,17.26
2022-09-30T14:56:04.937Z,17.50
2022-09-30T14:58:42.598Z,17.57
2022-09-30T15:01:17.601Z,17.11
2022-09-30T15:03:50.870Z,17.09
2022-09-30T15:06:23.073Z,16.79
2022-09-30T15:09:00.941Z,17.25
2022-09-30T15:11:34.836Z,17.22
2022-09-30T15:14:14.472Z,17.26
2022-09-30T15:16:49.229Z,17.29
2022-09-30T15:19:22.702Z,17.29
2022-09-30T15:21:53.172Z,17.24
2022-09-30T15:24:25.553Z,17.09
2022-09-30T15:26:57.206Z,16.96
2022-09-30T15:29:25.848Z,16.84
2022-09-30T15:32:03.395Z,16.56
2022-09-30T15:34:34.184Z,16.72
2022-09-30T15:37:06.962Z,16.44
2022-09-30T15:40:00.737Z,16.58
2022-09-30T15:42:39.855Z,16.26
2022-09-30T15:45:35.068Z,15.91
2022-09-30T15:48:07.655Z,16.01
2022-09-30T15:50:46.213Z,16.12
2022-09-30T15:53:24.956Z,15.97
2022-09-30T15:55:56.176Z,16.16
2022-09-30T15:58:41.674Z,16.22
2022-09-30T16:01:23.308Z,16.19
2022-09-30T16:03:56.608Z,16.09
2022-09-30T16:06:32.519Z,15.83
2022-09-30T16:09:03.453Z,15.82
2022-09-30T16:11:37.516Z,15.07
2022-09-30T16:14:12.970Z,15.37
2022-09-30T16:16:41.998Z,15.15
2022-09-30T16:19:19.452Z,14.94
2022-09-30T16:21:51.618Z,14.72
2022-09-30T16:24:46.015Z,14.47
2022-09-30T16:27:33.200Z,13.98
2022-09-30T16:30:03.531Z,13.94
2022-09-30T16:32:40.237Z,13.73
2022-09-30T16:35:15.814Z,13.53
2022-09-30T16:37:44.675Z,13.34
2022-09-30T16:40:25.923Z,12.99
2022-09-30T16:42:55.842Z,13.04
2022-09-30T16:45:26.628Z,12.90
2022-09-30T16:47:57.993Z,12.76
2022-09-30T16:50:36.200Z,12.61
2022-09-30T16:53:04.844Z,12.46
2022-09-30T16:55:36.077Z,12.33
2022-09-30T16:58:05.953Z,12.19
2022-09-30T17:00:36.555Z,12.05
2022-09-30T17:03:05.385Z,11.93
2022-09-30T17:05:34.186Z,11.80
2022-09-30T17:08:03.304Z,11.68
2022-09-30T17:10:35.588Z,11.57
2022-09-30T17:13:05.301Z,11.47
2022-09-30T17:15:37.408Z,11.43
2022-09-30T17:18:08.650Z,11.34
2022-09-30T17:20:38.411Z,11.28
2022-09-30T17:23:10.421Z,11.23
2022-09-30T17:25:42.543Z,11.17
2022-09-30T17:28:13.423Z,11.14
2022-09-30T17:30:44.668Z,11.10
2022-09-30T17:33:13.739Z,11.06
2022-09-30T17:35:44.205Z,11.02
2022-09-30T17:38:15.125Z,11.00
2022-09-30T17:41:00.311Z,10.96
2022-09-30T17:43:32.125Z,10.93
2022-09-30T17:46:05.169Z,10.92
2022-09-30T17:48:39.569Z,10.93
2022-09-30T17:51:09.043Z,10.93
2022-09-30T17:53:38.272Z,10.89
2022-09-30T17:56:10.264Z,10.85
2022-09-30T17:58:39.906Z,10.82
2022-09-30T18:01:11.495Z,10.80
2022-09-30T18:03:40.535Z,10.84
2022-09-30T18:06:09.978Z,10.96
2022-09-30T18:08:39.173Z,11.14
2022-09-30T18:11:08.006Z,11.25
2022-09-30T18:13:36.951Z,11.27
2022-09-30T18:16:08.144Z,11.15
2022-09-30T18:18:38.413Z,11.03
2022-09-30T18:21:08.657Z,10.92
2022-09-30T18:23:39.124Z,10.81
2022-09-30T18:26:08.290Z,10.76
2022-09-30T18:28:37.677Z,10.67
2022-09-30T18:31:24.202Z,10.61
2022-09-30T18:34:00.538Z,10.60
2022-09-30T18:36:32.503Z,10.61
2022-09-30T18:39:04.585Z,10.66
2022-09-30T18:41:44.460Z,10.76
2022-09-30T18:44:16.951Z,10.91
2022-09-30T18:46:47.350Z,11.06
2022-09-30T18:49:17.617Z,11.11
2022-09-30T18:51:47.049Z,11.16
2022-09-30T18:54:16.407Z,11.18
2022-09-30T18:56:45.175Z,11.17
2022-09-30T18:59:18.321Z,11.11
2022-09-30T19:01:52.092Z,11.00
2022-09-30T19:04:22.299Z,10.87
2022-09-30T19:06:51.600Z,10.74
2022-09-30T19:09:20.482Z,10.62
2022-09-30T19:11:51.520Z,10.50
2022-09-30T19:14:26.208Z,10.43
2022-09-30T19:16:56.438Z,10.38
2022-09-30T19:19:29.467Z,10.32
2022-09-30T19:22:01.339Z,10.26
2022-09-30T19:24:30.168Z,10.25
2022-09-30T19:26:59.235Z,10.28
2022-09-30T19:29:28.383Z,10.32
2022-09-30T19:31:57.580Z,10.38
2022-09-30T19:34:32.128Z,10.44
2022-09-30T19:37:01.528Z,10.51
2022-09-30T19:39:43.654Z,10.58
2022-09-30T19:42:17.101Z,10.64
2022-09-30T19:44:46.103Z,10.64
2022-09-30T19:47:15.712Z,10.63
2022-09-30T19:49:50.256Z,10.55
2022-09-30T19:52:32.294Z,10.42
2022-09-30T19:55:50.588Z,10.25
2022-09-30T19:58:22.242Z,10.06
2022-09-30T20:01:28.822Z,9.93
2022-09-30T20:04:05.787Z,9.79
2022-09-30T20:06:42.323Z,9.69
2022-09-30T20:09:14.955Z,9.58
2022-09-30T20:11:49.551Z,9.48
2022-09-30T20:14:35.543Z,9.41
2022-09-30T20:17:04.334Z,9.37
2022-09-30T20:19:33.097Z,9.33
2022-09-30T20:22:03.238Z,9.32
2022-09-30T20:24:32.236Z,9.27
2022-09-30T20:27:01.112Z,9.21
2022-09-30T20:29:32.941Z,9.15
2022-09-30T20:32:02.425Z,9.11
2022-09-30T20:34:34.448Z,9.05
2022-09-30T20:37:07.170Z,8.99
2022-09-30T20:39:39.918Z,8.95
2022-09-30T20:42:08.828Z,8.91
2022-09-30T20:44:37.981Z,8.86
2022-09-30T20:47:07.242Z,8.82
2022-09-30T20:49:36.211Z,8.78
2022-09-30T20:52:07.158Z,8.76
2022-09-30T20:54:36.684Z,8.74
2022-09-30T20:57:07.507Z,8.69
2022-09-30T20:59:36.721Z,8.66
2022-09-30T21:02:07.159Z,8.60
2022-09-30T21:04:36.102Z,8.55
2022-09-30T21:07:07.037Z,8.52
2022-09-30T21:10:11.724Z,8.46
2022-09-30T21:12:42.962Z,8.40
2022-09-30T21:15:52.044Z,8.37
2022-09-30T21:20:08.741Z,8.31
2022-09-30T21:29:27.579Z,8.30
2022-09-30T21:31:57.599Z,8.27
2022-09-30T21:34:26.581Z,8.27
2022-09-30T21:36:55.209Z,8.27
2022-09-30T21:39:24.019Z,8.25
2022-09-30T21:41:52.683Z,8.21
2022-09-30T21:44:22.845Z,8.22
2022-09-30T21:46:51.592Z,8.20
2022-09-30T21:49:23.166Z,8.22
2022-09-30T21:51:53.604Z,8.21
2022-09-30T21:54:23.398Z,8.25
2022-09-30T21:56:52.539Z,8.22
2022-09-30T21:59:22.492Z,8.23
2022-09-30T22:01:52.690Z,8.27
2022-09-30T22:04:21.838Z,8.28
2022-09-30T22:06:50.567Z,8.27
2022-09-30T22:09:19.443Z,8.22
2022-09-30T22:11:49.561Z,8.19
2022-09-30T22:14:18.869Z,8.16
2022-09-30T22:16:49.003Z,8.12
2022-09-30T22:19:17.951Z,8.07
2022-09-30T22:21:46.553Z,8.03
2022-09-30T22:24:15.218Z,8.00
2022-09-30T22:26:44.612Z,7.97
2022-09-30T22:29:13.747Z,7.90
2022-09-30T22:31:42.524Z,7.94
2022-09-30T22:34:32.867Z,7.91
2022-09-30T22:37:19.326Z,7.87
2022-09-30T22:39:48.053Z,7.82
2022-09-30T22:42:16.647Z,7.83
2022-09-30T22:44:46.297Z,7.79
2022-09-30T22:47:15.584Z,7.34
2022-09-30T22:49:46.911Z,7.74
2022-09-30T22:52:15.937Z,7.28
2022-09-30T22:54:44.611Z,7.72
2022-09-30T22:57:13.494Z,7.72
2022-09-30T22:59:43.092Z,7.69
2022-09-30T23:02:11.796Z,7.69
2022-09-30T23:04:40.385Z,7.67
2022-09-30T23:07:10.400Z,7.65
2022-09-30T23:09:39.045Z,7.61
2022-09-30T23:12:07.720Z,7.57
2022-09-30T23:14:36.574Z,7.54
2022-09-30T23:17:05.176Z,7.53
2022-09-30T23:19:33.847Z,7.51
2022-09-30T23:22:02.458Z,7.46
2022-09-30T23:24:32.320Z,7.44
2022-09-30T23:27:01.158Z,7.43
2022-09-30T23:29:29.787Z,7.47
2022-09-30T23:31:58.488Z,7.46
2022-09-30T23:34:26.856Z,7.31
2022-09-30T23:36:55.527Z,7.41
2022-09-30T23:39:24.107Z,7.39
2022-09-30T23:41:54.107Z,7.43
2022-09-30T23:44:24.504Z,7.37
2022-09-30T23:47:10.635Z,7.36
2022-09-30T23:49:39.266Z,7.36
2022-09-30T23:52:13.014Z,7.38
2022-09-30T23:54:42.553Z,7.39
2022-09-30T23:57:12.615Z,7.38
2022-09-30T23:59:41.435Z,7.34
